Terminal Aerodrome Forecast
Issued by NWS

Home | Current Version | Previous Version | Text Only | Print | Product List | Glossary On
Versions: 1 2 3 4 5 6 7 8 9 10 11 12 13 14
000
FTUS43 KAPX 251730
TAFTVC
TAF
KTVC 251730Z 2518/2618 02006KT P6SM BKN250
     FM252000 03007KT P6SM SCT050 BKN250
     FM260400 13004KT P6SM SHRA OVC080
     FM261000 16005KT P6SM SHRA BKN020
     FM261300 19006KT P6SM BKN030
     FM261500 20007KT P6SM BKN060=

USA.gov is the U.S. government's official web portal to all federal, state and local government web resources and services.